Spring Mountain Youth Camp, Nevada Weather observations

Data are for 60 minute period ending at time listed.
 Day   Time   Solar   Ave.   Ave.  Ave.  Vector  Max.   Baro.   Total    
  of    of     Rad.   Air    Rel.  Wind   Wind   Wind  Press.  Precip.   
Year   Day            Temp.  Hum.  Speed  Dir.   Gust                    
2016   (PST)  Kw/m2    F      %     mph   deg.    mph    mb.     in.     
-------------------------------------------------------------------------
 146    7:00   0.32   40.0    56    8.3   162    15.2   789.0    0.00 
 146    8:00   0.37   42.5    53    6.0   142    14.0   789.2    0.00 
 146    9:00   0.53   43.4    52    7.1   141    18.3   789.5    0.00 
 146   10:00   0.68   43.6    51    8.5   149    18.4   789.6    0.00 
 146   11:00   0.80   45.4    47   10.1   158    23.5   789.7    0.00 
 146   12:00   1.05   46.5    40   11.6   154    26.5   789.6    0.00 
 146   13:00   0.55   45.9    36    9.3   149    22.8   789.5    0.00 
 146   14:00   0.15   43.8    41    7.1   152    17.2   789.4    0.00 
 146   15:00   0.39   45.6    40    5.5   134    13.2   789.1    0.00 
 146   16:00   0.10   44.4    45    6.0   160    16.0   789.1    0.00 
 146   17:00   0.08   40.5    58    7.1   193    13.2   789.1    0.00 
 146   18:00   0.08   42.1    49    3.1   162     6.7   789.0    0.00 
 146   19:00   0.01   40.6    52    2.7    19     9.6   789.2    0.00 
 146   20:00   0.00   37.9    64    3.0    91     8.0   789.4    0.00 
 146   21:00   0.00   37.8    65    3.1    10     9.5   789.7    0.00 
 146   22:00   0.00   37.5    60    1.4    16     6.2   789.8    0.00 
 146   23:00   0.00   36.6    57    0.8   107     5.9   789.7    0.00 
 147    0:00   0.00   35.7    60    1.1   156     5.7   789.6    0.00 
 147    1:00   0.00   36.2    59    2.5    15     6.6   789.4    0.00 
 147    2:00   0.00   35.4    64    1.2   137     4.2   789.2    0.00 
 147    3:00   0.00   35.2    70    1.1   174     5.2   789.1    0.00 
 147    4:00   0.00   35.4    69    0.9    42     4.6   789.1    0.00 
 147    5:00   0.01   35.9    67    0.7    18     3.7   789.3    0.00 
 147    6:00   0.07   37.8    62    1.2    29     4.7   789.5    0.00 

Return to Spring Mountain Youth Camp graphs page.


Western Regional Climate Center,wrcc@dri.edu